McGregor, North Dakota
Current Conditions -  °F | °C
As of 2:35 PM on Saturday 25 Oct 2014 (Local Time) from KD60 Reporting Station
Overcast Overcast  
Wind Chill: 59°   Ceiling: 8000
Heat Index: 59°   Visibility: 10mi
Dew Point: 27°   Wind: 12mph
Humidity: 29%   Direction: 200°SSW
Pressure: 30.08"   Gusts: 16mph
Location:  48.6°N, 102.93°W
Report Text: KD60 251935Z AUTO 20010G14KT 160V220 10SM OVC080 15/M03 A3008 RMK AO2
Loading
Personal Weather Stations






























Interactive Weather Map
Tropical Storm Tracking
New forecast layout! Learn more

10-Day Weather Forecast

Advertisements
Track Severe Weather on mobile